East Fultonham, Ohio
Current Conditions -  °F | °C
As of 3:07 PM on Sunday 25 Jan 2015 (Local Time) from KZZV Reporting Station
Haze Haze  
Wind Chill: 31°   Ceiling: 500
Heat Index: 35°   Visibility: 2mi
Dew Point: 33°   Wind: 5mph
Humidity: 92%   Direction: 110°ESE
Pressure: 29.74"   Gusts: NA
Location:  39.85°N, 82.12°W
Report Text: KZZV 252007Z AUTO 11004KT 2SM UP BR OVC005 02/01 A2974 RMK AO2 P0000 T00170006
Loading
Personal Weather Stations






























Interactive Weather Map New forecast layout! Learn more

10-Day Weather Forecast

Advertisements
Track Severe Weather on mobile